createdAt,value
2019-04-20T00:00:54.753Z,10.91
2019-04-20T00:03:35.308Z,10.88
2019-04-20T00:06:06.966Z,10.83
2019-04-20T00:08:44.412Z,10.85
2019-04-20T00:11:26.224Z,10.83
2019-04-20T00:14:04.101Z,10.71
2019-04-20T00:16:33.798Z,10.66
2019-04-20T00:19:10.539Z,10.64
2019-04-20T00:21:56.133Z,10.58
2019-04-20T00:24:31.044Z,10.59
2019-04-20T00:27:26.098Z,10.62
2019-04-20T00:29:59.719Z,10.63
2019-04-20T00:35:20.905Z,10.63
2019-04-20T00:37:57.072Z,10.57
2019-04-20T00:40:35.579Z,10.44
2019-04-20T00:43:14.126Z,10.41
2019-04-20T00:45:53.786Z,10.41
2019-04-20T00:48:38.556Z,10.30
2019-04-20T00:51:23.895Z,10.28
2019-04-20T00:53:43.324Z,10.28
2019-04-20T00:56:16.208Z,10.26
2019-04-20T00:59:05.741Z,10.23
2019-04-20T01:01:53.497Z,10.26
2019-04-20T01:04:32.837Z,10.29
2019-04-20T01:07:04.600Z,10.31
2019-04-20T01:09:49.914Z,10.24
2019-04-20T01:12:28.569Z,10.21
2019-04-20T01:15:05.771Z,10.17
2019-04-20T01:17:41.797Z,10.05
2019-04-20T01:20:16.911Z,10.05
2019-04-20T01:23:00.055Z,9.99
2019-04-20T01:25:33.851Z,9.93
2019-04-20T01:28:25.048Z,9.90
2019-04-20T01:30:51.574Z,9.82
2019-04-20T01:33:34.352Z,9.80
2019-04-20T01:36:24.022Z,9.78
2019-04-20T01:38:47.192Z,9.74
2019-04-20T01:41:12.200Z,9.76
2019-04-20T01:43:48.102Z,9.71
2019-04-20T01:46:28.378Z,9.70
2019-04-20T01:49:10.549Z,9.61
2019-04-20T01:51:49.142Z,9.58
2019-04-20T01:54:31.195Z,9.49
2019-04-20T01:57:04.668Z,9.45
2019-04-20T01:59:52.107Z,9.43
2019-04-20T02:02:21.661Z,9.38
2019-04-20T02:05:06.111Z,9.33
2019-04-20T02:07:38.948Z,9.28
2019-04-20T02:10:15.137Z,9.19
2019-04-20T02:12:55.635Z,9.12
2019-04-20T02:15:32.698Z,9.07
2019-04-20T02:18:14.858Z,9.04
2019-04-20T02:21:01.303Z,8.99
2019-04-20T02:23:31.546Z,8.98
2019-04-20T02:25:54.930Z,8.94
2019-04-20T02:28:55.346Z,8.96
2019-04-20T02:34:24.121Z,8.92
2019-04-20T02:40:07.216Z,8.80
2019-04-20T02:42:34.924Z,8.79
2019-04-20T02:47:51.247Z,8.67
2019-04-20T02:50:20.668Z,8.67
2019-04-20T02:53:05.254Z,8.66
2019-04-20T02:55:41.960Z,8.68
2019-04-20T02:58:15.458Z,8.66
2019-04-20T03:00:44.775Z,8.61
2019-04-20T03:03:10.123Z,8.53
2019-04-20T03:05:43.443Z,8.54
2019-04-20T03:08:26.583Z,8.49
2019-04-20T03:11:15.916Z,8.49
2019-04-20T03:13:46.040Z,8.44
2019-04-20T03:16:22.383Z,8.39
2019-04-20T03:18:53.521Z,8.36
2019-04-20T03:21:38.049Z,8.33
2019-04-20T03:24:19.347Z,8.27
2019-04-20T03:26:52.974Z,8.20
2019-04-20T03:29:51.087Z,8.18
2019-04-20T03:32:57.605Z,8.10
2019-04-20T03:37:46.567Z,8.08
2019-04-20T03:40:12.889Z,8.04
2019-04-20T03:42:37.129Z,7.96
2019-04-20T03:45:16.361Z,7.93
2019-04-20T03:48:00.697Z,7.89
2019-04-20T03:50:47.935Z,7.86
2019-04-20T03:53:22.909Z,7.80
2019-04-20T03:56:03.238Z,7.79
2019-04-20T03:58:47.102Z,7.75
2019-04-20T04:02:03.302Z,7.74
2019-04-20T04:04:21.452Z,7.70
2019-04-20T04:06:46.379Z,7.63
2019-04-20T04:09:25.711Z,7.65
2019-04-20T04:12:06.614Z,7.63
2019-04-20T04:14:30.404Z,7.69
2019-04-20T04:17:06.177Z,7.62
2019-04-20T04:19:52.070Z,7.62
2019-04-20T04:22:37.626Z,7.58
2019-04-20T04:25:09.984Z,7.53
2019-04-20T04:27:55.067Z,7.53
2019-04-20T04:30:30.778Z,7.53
2019-04-20T04:33:42.737Z,7.57
2019-04-20T04:35:51.604Z,7.59
2019-04-20T04:38:39.595Z,7.61
2019-04-20T04:41:17.059Z,7.64
2019-04-20T04:43:47.360Z,7.66
2019-04-20T04:46:03.919Z,7.64
2019-04-20T04:48:44.017Z,7.69
2019-04-20T04:51:22.936Z,7.70
2019-04-20T04:54:01.810Z,7.76
2019-04-20T04:56:32.026Z,7.76
2019-04-20T04:59:08.656Z,7.81
2019-04-20T05:01:46.982Z,7.90
2019-04-20T05:04:48.561Z,8.01
2019-04-20T05:07:12.874Z,8.14
2019-04-20T05:09:38.010Z,8.18
2019-04-20T05:12:19.675Z,8.24
2019-04-20T05:15:01.929Z,8.28
2019-04-20T05:17:51.836Z,8.40
2019-04-20T05:20:22.053Z,8.55
2019-04-20T05:23:04.903Z,8.54
2019-04-20T05:25:56.997Z,8.57
2019-04-20T05:28:24.268Z,8.64
2019-04-20T05:30:59.324Z,8.69
2019-04-20T05:33:56.118Z,8.75
2019-04-20T05:36:30.384Z,8.77
2019-04-20T05:39:13.140Z,8.78
2019-04-20T05:41:40.615Z,8.85
2019-04-20T05:44:12.818Z,8.92
2019-04-20T05:46:59.459Z,8.98
2019-04-20T05:49:31.685Z,9.07
2019-04-20T05:52:24.088Z,9.14
2019-04-20T05:54:45.624Z,9.18
2019-04-20T06:00:21.535Z,9.27
2019-04-20T06:02:36.689Z,9.35
2019-04-20T06:05:20.251Z,9.26
2019-04-20T06:07:57.927Z,9.19
2019-04-20T06:10:32.003Z,9.22
2019-04-20T06:13:22.903Z,9.33
2019-04-20T06:16:07.336Z,9.41
2019-04-20T06:19:10.274Z,9.58
2019-04-20T06:21:37.766Z,9.68
2019-04-20T06:24:20.707Z,9.77
2019-04-20T06:27:00.890Z,9.87
2019-04-20T06:29:26.366Z,10.02
2019-04-20T06:32:14.060Z,10.18
2019-04-20T06:34:41.641Z,10.37
2019-04-20T06:37:24.464Z,10.49
2019-04-20T06:40:07.861Z,10.69
2019-04-20T06:42:35.895Z,10.83
2019-04-20T06:45:20.205Z,10.95
2019-04-20T06:47:52.041Z,11.14
2019-04-20T06:50:22.626Z,11.33
2019-04-20T06:53:32.052Z,11.53
2019-04-20T06:56:06.731Z,11.79
2019-04-20T06:58:47.525Z,12.00
2019-04-20T07:01:13.693Z,11.97
2019-04-20T07:04:04.293Z,12.00
2019-04-20T07:06:48.421Z,12.20
2019-04-20T07:09:20.258Z,12.71
2019-04-20T07:11:42.709Z,13.90
2019-04-20T07:14:06.591Z,15.41
2019-04-20T07:17:09.612Z,16.51
2019-04-20T07:19:50.484Z,17.71
2019-04-20T07:22:46.144Z,18.40
2019-04-20T07:25:26.257Z,19.12
2019-04-20T07:28:02.980Z,19.46
2019-04-20T07:30:35.237Z,20.04
2019-04-20T07:33:15.644Z,20.36
2019-04-20T07:35:53.005Z,21.22
2019-04-20T07:41:01.511Z,21.49
2019-04-20T07:43:54.111Z,21.94
2019-04-20T07:46:39.533Z,22.00
2019-04-20T07:49:01.365Z,21.87
2019-04-20T07:51:23.146Z,22.15
2019-04-20T07:54:33.331Z,22.32
2019-04-20T07:57:03.931Z,22.26
2019-04-20T07:59:30.573Z,22.40
2019-04-20T08:02:46.939Z,22.45
2019-04-20T08:05:10.634Z,22.71
2019-04-20T08:07:44.515Z,22.88
2019-04-20T08:10:35.368Z,23.28
2019-04-20T08:13:40.304Z,24.18
2019-04-20T08:16:25.834Z,25.34
2019-04-20T08:18:54.698Z,25.77
2019-04-20T08:21:38.813Z,25.36
2019-04-20T08:24:17.211Z,25.60
2019-04-20T08:26:51.867Z,25.34
2019-04-20T08:42:10.217Z,25.72
2019-04-20T08:45:08.340Z,26.06
2019-04-20T08:47:56.389Z,25.96
2019-04-20T08:50:27.024Z,26.14
2019-04-20T08:53:17.369Z,26.22
2019-04-20T08:55:46.601Z,26.02
2019-04-20T08:58:09.263Z,25.57
2019-04-20T09:00:49.995Z,25.57
2019-04-20T09:03:30.225Z,25.78
2019-04-20T09:06:08.702Z,26.87
2019-04-20T09:08:50.872Z,27.88
2019-04-20T09:11:39.974Z,28.72
2019-04-20T09:13:58.352Z,29.14
2019-04-20T09:16:40.948Z,29.96
2019-04-20T09:25:57.923Z,29.38
2019-04-20T09:28:16.123Z,29.53
2019-04-20T09:31:11.927Z,28.75
2019-04-20T09:37:24.695Z,28.63
2019-04-20T09:40:10.950Z,27.90
2019-04-20T09:42:26.393Z,27.93
2019-04-20T09:45:07.868Z,27.77
2019-04-20T09:47:49.459Z,28.06
2019-04-20T09:50:37.590Z,28.66
2019-04-20T09:53:20.886Z,29.84
2019-04-20T09:55:56.806Z,29.84
2019-04-20T09:58:37.903Z,30.18
2019-04-20T10:01:13.593Z,30.77
2019-04-20T10:06:51.796Z,31.06
2019-04-20T10:09:38.253Z,30.75
2019-04-20T10:15:28.321Z,31.37
2019-04-20T10:18:03.765Z,31.64
2019-04-20T10:26:58.980Z,30.19
2019-04-20T10:40:00.605Z,30.90
2019-04-20T10:55:45.267Z,31.10
2019-04-20T11:04:59.162Z,31.40
2019-04-20T11:07:41.223Z,31.40
2019-04-20T11:13:27.607Z,30.99
2019-04-20T11:19:15.631Z,31.04
2019-04-20T11:25:04.272Z,30.21
2019-04-20T11:27:45.991Z,30.82
2019-04-20T11:30:32.213Z,30.00
2019-04-20T11:33:11.691Z,29.37
2019-04-20T11:35:48.544Z,30.06
2019-04-20T11:38:30.525Z,30.71
2019-04-20T11:41:22.966Z,31.53
2019-04-20T11:43:55.756Z,31.43
2019-04-20T11:46:39.144Z,31.67
2019-04-20T11:49:17.513Z,31.44
2019-04-20T11:55:04.437Z,31.24
2019-04-20T11:58:05.878Z,31.21
2019-04-20T12:01:02.734Z,30.77
2019-04-20T12:03:54.265Z,30.93
2019-04-20T12:12:42.123Z,32.85
2019-04-20T12:25:08.046Z,34.33
2019-04-20T12:28:27.549Z,33.57
2019-04-20T12:31:24.652Z,33.03
2019-04-20T12:37:34.275Z,32.34
2019-04-20T12:47:03.690Z,32.82
2019-04-20T12:49:53.764Z,32.39
2019-04-20T12:55:52.677Z,32.49
2019-04-20T13:01:53.377Z,30.40
2019-04-20T13:04:37.280Z,30.25
2019-04-20T13:44:38.737Z,32.88
2019-04-20T13:47:14.910Z,31.60
2019-04-20T13:50:13.171Z,32.60
2019-04-20T13:56:32.242Z,32.52
2019-04-20T14:02:48.949Z,33.07
2019-04-20T14:05:46.795Z,32.88
2019-04-20T14:18:11.132Z,31.62
2019-04-20T14:48:42.650Z,31.67
2019-04-20T14:51:42.104Z,31.88
2019-04-20T14:54:21.459Z,31.80
2019-04-20T14:57:01.498Z,31.64
2019-04-20T14:59:43.368Z,31.75
2019-04-20T15:02:26.056Z,32.12
2019-04-20T15:08:22.880Z,32.38
2019-04-20T15:11:12.580Z,31.85
2019-04-20T15:13:56.438Z,31.81
2019-04-20T15:23:21.563Z,30.64
2019-04-20T15:26:11.002Z,30.21
2019-04-20T15:41:15.527Z,29.53
2019-04-20T15:44:29.306Z,29.97
2019-04-20T15:53:17.782Z,29.48
2019-04-20T15:56:11.263Z,29.44
2019-04-20T15:58:50.592Z,29.70
2019-04-20T16:01:34.615Z,30.02
2019-04-20T16:04:48.683Z,30.32
2019-04-20T16:07:48.567Z,30.02
2019-04-20T16:10:28.502Z,29.69
2019-04-20T16:13:16.256Z,29.14
2019-04-20T16:25:37.309Z,27.91
2019-04-20T16:28:27.787Z,27.02
2019-04-20T16:34:15.973Z,27.28
2019-04-20T16:36:56.129Z,27.17
2019-04-20T16:39:34.745Z,27.43
2019-04-20T16:42:18.260Z,26.76
2019-04-20T16:45:05.469Z,26.96
2019-04-20T16:47:54.556Z,27.28
2019-04-20T16:50:33.043Z,26.37
2019-04-20T16:53:26.763Z,26.10
2019-04-20T16:56:24.544Z,26.37
2019-04-20T16:59:12.231Z,26.15
2019-04-20T17:02:02.463Z,25.26
2019-04-20T17:04:39.057Z,24.65
2019-04-20T17:07:28.927Z,23.86
2019-04-20T17:10:07.516Z,23.26
2019-04-20T17:12:44.064Z,22.77
2019-04-20T17:15:23.486Z,22.41
2019-04-20T17:18:01.328Z,22.06
2019-04-20T17:20:38.934Z,21.73
2019-04-20T17:23:17.547Z,21.43
2019-04-20T17:25:52.931Z,21.27
2019-04-20T17:28:36.742Z,21.13
2019-04-20T17:31:17.474Z,20.93
2019-04-20T17:34:06.585Z,20.83
2019-04-20T17:36:38.322Z,20.69
2019-04-20T17:39:25.328Z,20.54
2019-04-20T17:42:07.400Z,20.47
2019-04-20T17:44:42.837Z,20.38
2019-04-20T17:47:27.528Z,20.26
2019-04-20T17:50:06.062Z,20.12
2019-04-20T17:52:44.468Z,19.95
2019-04-20T17:55:16.196Z,19.82
2019-04-20T17:57:41.674Z,19.70
2019-04-20T18:00:24.094Z,19.55
2019-04-20T18:03:30.281Z,19.46
2019-04-20T18:06:14.122Z,19.40
2019-04-20T18:08:50.583Z,19.29
2019-04-20T18:11:15.193Z,19.17
2019-04-20T18:13:47.842Z,19.09
2019-04-20T18:16:46.620Z,18.98
2019-04-20T18:19:17.209Z,18.95
2019-04-20T18:21:49.733Z,18.86
2019-04-20T18:24:48.972Z,18.83
2019-04-20T18:27:24.804Z,18.95
2019-04-20T18:29:58.782Z,19.02
2019-04-20T18:32:27.493Z,18.85
2019-04-20T18:35:18.210Z,18.71
2019-04-20T18:38:02.591Z,18.50
2019-04-20T18:40:44.629Z,18.46
2019-04-20T18:43:18.283Z,18.38
2019-04-20T18:46:10.974Z,18.51
2019-04-20T18:48:45.189Z,18.46
2019-04-20T18:51:03.935Z,18.83
2019-04-20T18:53:42.895Z,18.88
2019-04-20T18:56:23.900Z,18.73
2019-04-20T18:58:53.818Z,18.76
2019-04-20T19:01:30.966Z,18.83
2019-04-20T19:04:07.795Z,18.58
2019-04-20T19:06:43.790Z,18.23
2019-04-20T19:09:25.019Z,17.99
2019-04-20T19:12:02.490Z,17.78
2019-04-20T19:15:02.432Z,17.66
2019-04-20T19:17:49.806Z,17.53
2019-04-20T19:20:25.019Z,17.39
2019-04-20T19:23:00.113Z,17.27
2019-04-20T19:25:38.881Z,17.11
2019-04-20T19:28:14.460Z,16.95
2019-04-20T19:31:01.807Z,16.88
2019-04-20T19:33:40.232Z,16.88
2019-04-20T19:36:17.695Z,16.83
2019-04-20T19:38:52.307Z,16.74
2019-04-20T19:41:28.691Z,16.65
2019-04-20T19:44:07.029Z,16.56
2019-04-20T19:47:05.068Z,16.48
2019-04-20T19:49:21.729Z,16.42
2019-04-20T19:52:20.191Z,16.36
2019-04-20T19:54:43.373Z,16.30
2019-04-20T19:57:20.420Z,16.24
2019-04-20T19:59:41.321Z,16.20
2019-04-20T20:02:13.952Z,16.14
2019-04-20T20:04:54.668Z,16.12
2019-04-20T20:07:33.321Z,16.10
2019-04-20T20:10:06.009Z,16.02
2019-04-20T20:12:48.387Z,15.90
2019-04-20T20:15:25.707Z,15.83
2019-04-20T20:18:15.507Z,15.76
2019-04-20T20:20:52.901Z,15.67
2019-04-20T20:23:10.062Z,15.66
2019-04-20T20:25:48.135Z,15.59
2019-04-20T20:28:31.367Z,15.52
2019-04-20T20:31:08.381Z,15.49
2019-04-20T20:33:54.627Z,15.40
2019-04-20T20:36:21.947Z,15.32
2019-04-20T20:39:08.569Z,15.30
2019-04-20T20:41:45.137Z,15.26
2019-04-20T20:44:24.325Z,15.17
2019-04-20T20:47:10.638Z,15.10
2019-04-20T20:49:48.621Z,15.04
2019-04-20T20:52:18.470Z,15.02
2019-04-20T20:54:49.840Z,14.93
2019-04-20T20:57:20.032Z,14.88
2019-04-20T20:59:57.436Z,14.84
2019-04-20T21:02:43.482Z,14.81
2019-04-20T21:05:07.018Z,14.75
2019-04-20T21:07:42.776Z,14.73
2019-04-20T21:10:26.890Z,14.75
2019-04-20T21:13:01.422Z,14.69
2019-04-20T21:15:33.371Z,14.62
2019-04-20T21:18:35.115Z,14.60
2019-04-20T21:21:02.228Z,14.55
2019-04-20T21:23:36.700Z,14.48
2019-04-20T21:26:12.719Z,14.44
2019-04-20T21:28:45.817Z,14.44
2019-04-20T21:31:24.320Z,14.37
2019-04-20T21:34:02.854Z,14.33
2019-04-20T21:36:35.226Z,14.26
2019-04-20T21:39:22.092Z,14.20
2019-04-20T21:41:56.817Z,14.15
2019-04-20T21:44:29.479Z,14.10
2019-04-20T21:47:03.391Z,14.04
2019-04-20T21:49:53.181Z,14.00
2019-04-20T21:52:24.907Z,13.95
2019-04-20T21:55:00.126Z,13.86
2019-04-20T21:57:46.246Z,13.80
2019-04-20T22:00:42.593Z,13.83
2019-04-20T22:03:18.436Z,13.77
2019-04-20T22:06:02.433Z,13.74
2019-04-20T22:08:39.472Z,13.70
2019-04-20T22:11:15.800Z,13.64
2019-04-20T22:13:53.325Z,13.62
2019-04-20T22:16:35.353Z,13.61
2019-04-20T22:19:22.501Z,13.57
2019-04-20T22:21:58.118Z,13.52
2019-04-20T22:24:40.033Z,13.46
2019-04-20T22:27:06.266Z,13.38
2019-04-20T22:29:36.307Z,13.41
2019-04-20T22:32:20.423Z,13.30
2019-04-20T22:35:01.383Z,13.25
2019-04-20T22:37:38.248Z,13.23
2019-04-20T22:40:22.086Z,13.19
2019-04-20T22:42:54.329Z,13.09
2019-04-20T22:45:29.604Z,13.04
2019-04-20T22:48:09.072Z,13.05
2019-04-20T22:51:01.671Z,13.03
2019-04-20T22:53:36.471Z,12.96
2019-04-20T22:56:18.733Z,12.89
2019-04-20T22:58:44.750Z,12.90
2019-04-20T23:01:24.942Z,12.83
2019-04-20T23:03:52.693Z,12.79
2019-04-20T23:06:33.385Z,12.71
2019-04-20T23:09:12.613Z,12.67
2019-04-20T23:11:45.259Z,12.65
2019-04-20T23:14:20.391Z,12.60
2019-04-20T23:16:57.473Z,12.69
2019-04-20T23:19:40.653Z,12.58
2019-04-20T23:22:13.819Z,12.58
2019-04-20T23:24:49.223Z,12.55
2019-04-20T23:27:31.246Z,12.47
2019-04-20T23:30:12.644Z,12.41
2019-04-20T23:32:42.555Z,12.39
2019-04-20T23:35:20.067Z,12.39
2019-04-20T23:38:01.560Z,12.32
2019-04-20T23:40:31.971Z,12.28
2019-04-20T23:43:31.540Z,12.25
2019-04-20T23:46:21.356Z,12.24
2019-04-20T23:49:19.987Z,12.18
2019-04-20T23:52:09.485Z,12.20
2019-04-20T23:54:31.474Z,12.17
2019-04-20T23:57:05.913Z,12.15
2019-04-20T23:59:44.875Z,12.16
